Time;durP1;ratioP1;P1;durP2;ratioP2;P2;SDS_P1;SDS_P2;PMS_P1;PMS_P2;Temp;Humidity;BMP_temperature;BMP_pressure;BME280_temperature;BME280_humidity;BME280_pressure;Samples;Min_cycle;Max_cycle;Signal;HPM_P1;HPM_P2
2021/12/22 00:01:06;;;;;;;;;;;;;;;-3.94;100.00;102660.16;5009414;28;20411;-74
2021/12/22 00:03:31;;;;;;;;;;;;;;;-3.95;100.00;102663.34;5003222;28;19924;-74
2021/12/22 00:05:56;;;;;;;;;;;;;;;-3.96;100.00;102659.06;5008481;28;20569;-75
2021/12/22 00:08:22;;;;;;;;;;;;;;;-3.95;100.00;102658.31;5005278;28;19925;-74
2021/12/22 00:10:49;;;;;;;;;;;;;;;-3.96;100.00;102656.53;5007660;28;20016;-72
2021/12/22 00:13:15;;;;;;;;;;;;;;;-4.00;100.00;102663.56;5007045;28;20004;-73
2021/12/22 00:15:40;;;;;;;;;;;;;;;-4.06;100.00;102667.19;5006722;28;19992;-73
2021/12/22 00:18:06;;;;;;;;;;;;;;;-4.11;100.00;102663.22;5006280;28;19930;-74
2021/12/22 00:20:31;;;;;;;;;;;;;;;-4.15;100.00;102661.09;5007336;28;20365;-75
2021/12/22 00:22:56;;;;;;;;;;;;;;;-4.16;100.00;102661.81;5007330;28;19922;-75
2021/12/22 00:25:25;;;;;;;;;;;;;;;-4.15;100.00;102657.69;5004102;28;19929;-73
2021/12/22 00:27:51;;;;;;;;;;;;;;;-4.16;100.00;102660.91;5007632;28;20348;-75
2021/12/22 00:30:16;;;;;;;;;;;;;;;-4.20;100.00;102654.63;5006727;28;19925;-75
2021/12/22 00:32:49;;;;;;;;;;;;;;;-4.20;100.00;102653.72;5003651;28;19925;-75
2021/12/22 00:35:14;;;;;;;;;;;;;;;-4.23;100.00;102648.38;5004979;28;19967;-74
2021/12/22 00:37:40;;;;;;;;;;;;;;;-4.26;100.00;102643.88;5006750;28;20561;-75
2021/12/22 00:40:05;;;;;;;;;;;;;;;-4.23;100.00;102646.75;5006242;28;19980;-74
2021/12/22 00:42:30;;;;;;;;;;;;;;;-4.22;100.00;102651.06;5004405;28;19976;-75
2021/12/22 00:44:56;;;;;;;;;;;;;;;-4.24;100.00;102654.13;5006411;28;19921;-75
2021/12/22 00:47:23;;;;;;;;;;;;;;;-4.27;100.00;102654.66;5003954;28;19961;-73
2021/12/22 00:49:48;;;;;;;;;;;;;;;-4.30;100.00;102655.94;5006726;28;20308;-76
2021/12/22 00:52:14;;;;;;;;;;;;;;;-4.28;100.00;102654.47;5006842;28;19925;-75
2021/12/22 00:54:39;;;;;;;;;;;;;;;-4.26;100.00;102648.00;5004731;28;19933;-76
2021/12/22 00:57:06;;;;;;;;;;;;;;;-4.28;100.00;102652.84;5002071;28;19926;-76
2021/12/22 00:59:32;;;;;;;;;;;;;;;-4.29;100.00;102658.59;5006373;28;20292;-75
2021/12/22 01:01:58;;;;;;;;;;;;;;;-4.28;100.00;102662.91;5006373;28;20339;-74
2021/12/22 01:04:23;;;;;;;;;;;;;;;-4.33;100.00;102659.84;5003759;28;19921;-73
2021/12/22 01:06:48;;;;;;;;;;;;;;;-4.32;100.00;102664.16;5004217;28;19924;-73
2021/12/22 01:09:13;;;;;;;;;;;;;;;-4.33;100.00;102664.88;5005402;28;19921;-75
2021/12/22 01:11:39;;;;;;;;;;;;;;;-4.38;100.00;102663.44;5006191;28;19925;-75
2021/12/22 01:14:04;;;;;;;;;;;;;;;-4.42;100.00;102670.47;5006556;28;19965;-76
2021/12/22 01:16:30;;;;;;;;;;;;;;;-4.43;100.00;102664.56;5002545;28;19925;-75
2021/12/22 01:18:58;;;;;;;;;;;;;;;-4.44;100.00;102660.22;5004047;28;19925;-75
2021/12/22 01:21:46;;;;;;;;;;;;;;;-4.43;100.00;102652.00;5005061;28;19932;-75
2021/12/22 01:26:51;;;;;;;;;;;;;;;-4.41;100.00;102644.63;5002930;28;20305;-75
2021/12/22 01:29:16;;;;;;;;;;;;;;;-4.41;100.00;102643.00;5003752;28;19930;-72
2021/12/22 01:31:42;;;;;;;;;;;;;;;-4.38;100.00;102658.41;5000009;28;19930;-74
2021/12/22 01:34:08;;;;;;;;;;;;;;;-4.37;100.00;102664.34;5003602;28;19917;-75
2021/12/22 01:36:33;;;;;;;;;;;;;;;-4.43;100.00;102653.59;5004208;28;20411;-73
2021/12/22 01:38:59;;;;;;;;;;;;;;;-4.48;100.00;102649.66;5004155;28;19929;-75
2021/12/22 01:41:24;;;;;;;;;;;;;;;-4.50;100.00;102646.94;5004424;28;19917;-74
2021/12/22 01:43:50;;;;;;;;;;;;;;;-4.52;100.00;102645.88;5003935;28;20361;-75
2021/12/22 01:49:12;;;;;;;;;;;;;;;-4.56;100.00;102646.25;5004142;28;20387;-75
2021/12/22 01:51:38;;;;;;;;;;;;;;;-4.56;100.00;102637.81;5002934;28;19921;-75
2021/12/22 01:54:07;;;;;;;;;;;;;;;-4.56;100.00;102641.22;5005306;28;19921;-75
2021/12/22 01:56:34;;;;;;;;;;;;;;;-4.56;100.00;102643.72;5004568;28;19918;-75
2021/12/22 01:59:02;;;;;;;;;;;;;;;-4.54;100.00;102633.88;5003482;28;19926;-75
2021/12/22 02:01:28;;;;;;;;;;;;;;;-4.54;100.00;102636.41;5004832;28;19989;-76
2021/12/22 02:03:54;;;;;;;;;;;;;;;-4.53;100.00;102649.13;5004420;28;19948;-75
2021/12/22 02:06:20;;;;;;;;;;;;;;;-4.57;100.00;102651.09;5003491;28;20357;-75
2021/12/22 02:08:46;;;;;;;;;;;;;;;-4.61;100.00;102654.84;5000407;28;19922;-73
2021/12/22 02:11:13;;;;;;;;;;;;;;;-4.63;100.00;102648.75;5002946;28;19983;-74
2021/12/22 02:13:42;;;;;;;;;;;;;;;-4.61;100.00;102655.78;5005048;28;19918;-71
2021/12/22 02:16:11;;;;;;;;;;;;;;;-4.63;100.00;102654.66;5010597;28;19918;-74
2021/12/22 02:18:38;;;;;;;;;;;;;;;-4.63;100.00;102658.81;5013148;28;20071;-73
2021/12/22 02:21:04;;;;;;;;;;;;;;;-4.66;100.00;102651.81;5009254;28;19984;-75
2021/12/22 02:23:29;;;;;;;;;;;;;;;-4.68;100.00;102654.84;5001950;28;20005;-72
2021/12/22 02:25:59;;;;;;;;;;;;;;;-4.66;100.00;102651.81;5004671;28;19922;-74
2021/12/22 02:28:30;;;;;;;;;;;;;;;-4.67;100.00;102646.59;5003102;28;20044;-74
2021/12/22 02:30:55;;;;;;;;;;;;;;;-4.69;100.00;102658.97;5002547;28;19926;-75
2021/12/22 02:33:23;;;;;;;;;;;;;;;-4.68;100.00;102652.34;5003857;28;19929;-74
2021/12/22 02:36:06;;;;;;;;;;;;;;;-4.70;100.00;102659.69;5003129;28;20276;-73
2021/12/22 02:38:32;;;;;;;;;;;;;;;-4.71;100.00;102650.38;5000023;28;19956;-74
2021/12/22 02:40:57;;;;;;;;;;;;;;;-4.72;100.00;102655.22;5005495;28;19957;-74
2021/12/22 02:43:24;;;;;;;;;;;;;;;-4.71;100.00;102657.03;5003309;28;19983;-74
2021/12/22 02:45:51;;;;;;;;;;;;;;;-4.74;100.00;102649.13;5001689;28;19968;-74
2021/12/22 02:48:17;;;;;;;;;;;;;;;-4.78;100.00;102645.38;5005667;28;19921;-74
2021/12/22 02:50:43;;;;;;;;;;;;;;;-4.81;100.00;102645.00;5001573;28;19932;-74
2021/12/22 02:53:12;;;;;;;;;;;;;;;-4.81;100.00;102639.06;5007526;28;19972;-75
2021/12/22 02:55:50;;;;;;;;;;;;;;;-4.83;100.00;102640.53;5007547;28;20025;-74
2021/12/22 02:58:36;;;;;;;;;;;;;;;-4.87;100.00;102646.78;5008328;28;19965;-74
2021/12/22 03:01:10;;;;;;;;;;;;;;;-4.87;100.00;102646.78;5004050;28;19925;-74
2021/12/22 03:06:14;;;;;;;;;;;;;;;-4.91;100.00;102647.16;5006617;28;19918;-73
2021/12/22 03:08:39;;;;;;;;;;;;;;;-4.92;100.00;102651.25;5005253;28;20359;-75
2021/12/22 03:11:04;;;;;;;;;;;;;;;-4.96;100.00;102645.72;5005497;28;20416;-76
2021/12/22 03:13:32;;;;;;;;;;;;;;;-5.00;100.00;102646.94;5006926;28;19925;-75
2021/12/22 03:15:58;;;;;;;;;;;;;;;-5.02;100.00;102650.91;5004638;28;19928;-75
2021/12/22 03:18:24;;;;;;;;;;;;;;;-5.01;100.00;102656.81;5007066;28;20000;-75
2021/12/22 03:20:57;;;;;;;;;;;;;;;-5.00;100.00;102658.59;5005214;28;20276;-74
2021/12/22 03:23:22;;;;;;;;;;;;;;;-5.03;100.00;102663.28;5004660;28;19973;-74
2021/12/22 03:25:48;;;;;;;;;;;;;;;-5.07;100.00;102664.50;5006876;28;19964;-74
2021/12/22 03:28:13;;;;;;;;;;;;;;;-5.11;100.00;102669.88;5005523;28;19926;-72
2021/12/22 03:30:38;;;;;;;;;;;;;;;-5.12;100.00;102668.06;5006772;28;19948;-74
2021/12/22 03:33:04;;;;;;;;;;;;;;;-5.13;100.00;102671.31;5007970;28;19965;-74
2021/12/22 03:35:30;;;;;;;;;;;;;;;-5.11;100.00;102664.84;5005483;28;19926;-75
2021/12/22 03:37:56;;;;;;;;;;;;;;;-5.11;100.00;102674.88;5004012;28;19925;-75
2021/12/22 03:40:23;;;;;;;;;;;;;;;-5.16;100.00;102674.34;5004366;28;19925;-75
2021/12/22 03:42:49;;;;;;;;;;;;;;;-5.22;100.00;102671.13;5008474;28;19972;-75
2021/12/22 03:45:14;;;;;;;;;;;;;;;-5.29;100.00;102657.63;5006767;28;19949;-74
2021/12/22 03:47:39;;;;;;;;;;;;;;;-5.30;100.00;102660.88;5003824;28;19926;-74
2021/12/22 03:50:05;;;;;;;;;;;;;;;-5.30;100.00;102660.88;5003318;28;20312;-75
2021/12/22 03:52:31;;;;;;;;;;;;;;;-5.31;100.00;102661.59;5008136;28;19921;-75
2021/12/22 03:54:58;;;;;;;;;;;;;;;-5.32;100.00;102653.16;5006953;28;19933;-75
2021/12/22 03:57:26;;;;;;;;;;;;;;;-5.30;100.00;102650.84;5004329;28;19921;-74
2021/12/22 03:59:52;;;;;;;;;;;;;;;-5.29;100.00;102653.53;5002291;28;20008;-74
2021/12/22 04:02:20;;;;;;;;;;;;;;;-5.29;100.00;102652.63;5008178;28;20338;-75
2021/12/22 04:04:48;;;;;;;;;;;;;;;-5.25;100.00;102654.78;5007693;28;20020;-74
2021/12/22 04:07:13;;;;;;;;;;;;;;;-5.23;100.00;102653.34;5006223;28;19917;-76
2021/12/22 04:09:39;;;;;;;;;;;;;;;-5.25;100.00;102653.19;5005638;28;19936;-73
2021/12/22 04:12:04;;;;;;;;;;;;;;;-5.28;100.00;102657.81;5005326;28;20285;-75
2021/12/22 04:14:29;;;;;;;;;;;;;;;-5.29;100.00;102652.63;5003197;28;19918;-75
2021/12/22 04:16:54;;;;;;;;;;;;;;;-5.28;100.00;102649.41;5006714;28;20355;-75
2021/12/22 04:19:20;;;;;;;;;;;;;;;-5.28;100.00;102654.41;5004054;28;19967;-74
2021/12/22 04:21:45;;;;;;;;;;;;;;;-5.31;100.00;102647.44;5006449;28;19926;-75
2021/12/22 04:24:10;;;;;;;;;;;;;;;-5.31;100.00;102649.03;5004950;28;20414;-74
2021/12/22 04:26:36;;;;;;;;;;;;;;;-5.33;100.00;102648.88;5005135;28;19968;-74
2021/12/22 04:29:01;;;;;;;;;;;;;;;-5.33;100.00;102646.38;5003775;28;20000;-74
2021/12/22 04:31:26;;;;;;;;;;;;;;;-5.33;100.00;102640.47;5003757;28;19922;-73
2021/12/22 04:33:52;;;;;;;;;;;;;;;-5.33;100.00;102635.44;5005542;28;19993;-73
2021/12/22 04:36:17;;;;;;;;;;;;;;;-5.37;100.00;102641.69;5004605;28;19922;-75
2021/12/22 04:38:43;;;;;;;;;;;;;;;-5.38;100.00;102634.00;5009455;28;19966;-75
2021/12/22 04:41:08;;;;;;;;;;;;;;;-5.36;100.00;102637.56;5004996;28;19917;-76
2021/12/22 04:43:33;;;;;;;;;;;;;;;-5.36;100.00;102630.03;5006287;28;19928;-74
2021/12/22 04:45:59;;;;;;;;;;;;;;;-5.38;100.00;102631.50;5001903;28;19918;-75
2021/12/22 04:48:24;;;;;;;;;;;;;;;-5.40;100.00;102622.19;5003186;28;19928;-75
2021/12/22 04:50:49;;;;;;;;;;;;;;;-5.37;100.00;102615.72;5003128;28;20016;-75
2021/12/22 04:53:24;;;;;;;;;;;;;;;-5.35;100.00;102622.69;5006086;28;19929;-74
2021/12/22 04:55:50;;;;;;;;;;;;;;;-5.36;100.00;102615.00;5005551;28;19932;-76
2021/12/22 04:58:15;;;;;;;;;;;;;;;-5.40;100.00;102624.69;5005617;28;19929;-76
2021/12/22 05:00:41;;;;;;;;;;;;;;;-5.40;100.00;102622.19;5005364;28;20015;-75
2021/12/22 05:03:06;;;;;;;;;;;;;;;-5.42;100.00;102622.69;5007023;28;19928;-75
2021/12/22 05:05:32;;;;;;;;;;;;;;;-5.44;100.00;102620.00;5001952;28;19917;-74
2021/12/22 05:07:58;;;;;;;;;;;;;;;-5.44;100.00;102609.09;5006000;28;20015;-75
2021/12/22 05:10:24;;;;;;;;;;;;;;;-5.45;100.00;102617.31;5002866;28;20004;-75
2021/12/22 05:12:49;;;;;;;;;;;;;;;-5.47;100.00;102613.72;5006200;28;19967;-73
2021/12/22 05:15:23;;;;;;;;;;;;;;;-5.49;100.00;102607.63;5006668;28;19957;-75
2021/12/22 05:18:12;;;;;;;;;;;;;;;-5.49;100.00;102608.53;5003472;28;19918;-76
2021/12/22 05:20:34;;;;;;;;;;;;;;;-5.47;100.00;102616.22;5006006;28;19917;-72
2021/12/22 05:23:00;;;;;;;;;;;;;;;-5.46;100.00;102610.50;5006500;28;19940;-75
2021/12/22 05:25:25;;;;;;;;;;;;;;;-5.46;100.00;102613.94;5004647;28;19952;-74
2021/12/22 05:27:50;;;;;;;;;;;;;;;-5.47;100.00;102612.09;5005484;28;19947;-75
2021/12/22 05:30:15;;;;;;;;;;;;;;;-5.45;100.00;102614.81;5003821;28;19960;-75
2021/12/22 05:32:41;;;;;;;;;;;;;;;-5.44;100.00;102617.50;5005008;28;20388;-76
2021/12/22 05:35:07;;;;;;;;;;;;;;;-5.44;100.00;102614.09;5001162;28;19925;-76
2021/12/22 05:37:32;;;;;;;;;;;;;;;-5.43;100.00;102610.88;5003484;28;19926;-76
2021/12/22 05:39:58;;;;;;;;;;;;;;;-5.42;100.00;102610.16;5003651;28;19976;-75
2021/12/22 05:42:24;;;;;;;;;;;;;;;-5.43;100.00;102601.75;5005426;28;20019;-76
2021/12/22 05:44:49;;;;;;;;;;;;;;;-5.47;100.00;102607.09;5006622;28;19917;-75
2021/12/22 05:47:14;;;;;;;;;;;;;;;-5.52;100.00;102593.13;5004627;28;20331;-75
2021/12/22 05:49:40;;;;;;;;;;;;;;;-5.52;100.00;102600.66;5001989;28;19980;-76
2021/12/22 05:52:06;;;;;;;;;;;;;;;-5.52;100.00;102590.63;5005734;28;19925;-75
2021/12/22 05:54:31;;;;;;;;;;;;;;;-5.56;100.00;102593.47;5004032;28;20033;-75
2021/12/22 05:56:56;;;;;;;;;;;;;;;-5.60;100.00;102593.81;5004770;28;20276;-76
2021/12/22 05:59:22;;;;;;;;;;;;;;;-5.62;100.00;102590.25;5004402;28;20435;-74
2021/12/22 06:01:47;;;;;;;;;;;;;;;-5.65;100.00;102589.84;5005405;28;20698;-75
2021/12/22 06:04:12;;;;;;;;;;;;;;;-5.64;100.00;102593.25;5004471;28;19921;-74
2021/12/22 06:06:37;;;;;;;;;;;;;;;-5.66;100.00;102585.56;5002512;28;19929;-74
2021/12/22 06:09:03;;;;;;;;;;;;;;;-5.66;100.00;102596.47;5006432;28;20296;-76
2021/12/22 06:11:29;;;;;;;;;;;;;;;-5.65;100.00;102589.84;5003533;28;20008;-75
2021/12/22 06:13:55;;;;;;;;;;;;;;;-5.61;100.00;102607.06;5002115;28;20115;-76
2021/12/22 06:16:21;;;;;;;;;;;;;;;-5.64;100.00;102603.28;5002758;28;19972;-76
2021/12/22 06:18:50;;;;;;;;;;;;;;;-5.67;100.00;102597.19;4999818;28;19984;-72
2021/12/22 06:21:15;;;;;;;;;;;;;;;-5.69;100.00;102597.75;5003373;28;19957;-74
2021/12/22 06:23:40;;;;;;;;;;;;;;;-5.73;100.00;102603.09;5003883;28;20007;-76
2021/12/22 06:26:06;;;;;;;;;;;;;;;-5.76;100.00;102605.25;5005682;28;19917;-76
2021/12/22 06:28:31;;;;;;;;;;;;;;;-5.75;100.00;102602.03;4994076;28;19988;-73
2021/12/22 06:30:56;;;;;;;;;;;;;;;-5.77;100.00;102609.31;5002099;28;20024;-75
2021/12/22 06:33:22;;;;;;;;;;;;;;;-5.77;100.00;102605.94;5001245;28;19922;-75
2021/12/22 06:35:47;;;;;;;;;;;;;;;-5.78;100.00;102606.63;5000936;28;20361;-74
2021/12/22 06:38:16;;;;;;;;;;;;;;;-5.76;100.00;102600.22;5002071;28;19925;-75
2021/12/22 06:40:41;;;;;;;;;;;;;;;-5.79;100.00;102602.34;5002961;28;19928;-72
2021/12/22 06:43:07;;;;;;;;;;;;;;;-5.81;100.00;102608.78;5003464;28;19926;-76
2021/12/22 06:45:32;;;;;;;;;;;;;;;-5.83;100.00;102612.69;4998911;28;19979;-74
2021/12/22 06:47:57;;;;;;;;;;;;;;;-5.85;100.00;102612.53;4999581;28;20423;-76
2021/12/22 06:50:23;;;;;;;;;;;;;;;-5.88;100.00;102612.16;5000369;28;19930;-68
2021/12/22 06:52:48;;;;;;;;;;;;;;;-5.91;100.00;102618.44;4982082;28;19928;-70
2021/12/22 06:55:14;;;;;;;;;;;;;;;-5.91;100.00;102615.94;4980635;28;20277;-69
2021/12/22 06:57:39;;;;;;;;;;;;;;;-5.89;100.00;102612.84;4999790;28;20360;-69
2021/12/22 07:00:06;;;;;;;;;;;;;;;-5.84;100.00;102615.91;4986505;28;19972;-69
2021/12/22 07:02:35;;;;;;;;;;;;;;;-5.84;100.00;102619.31;5003349;28;20004;-70
2021/12/22 07:05:00;;;;;;;;;;;;;;;-5.84;100.00;102616.81;5003671;28;19967;-69
2021/12/22 07:07:26;;;;;;;;;;;;;;;-5.81;100.00;102613.81;5001943;28;19970;-69
2021/12/22 07:09:51;;;;;;;;;;;;;;;-5.82;100.00;102622.03;5000452;28;20070;-68
2021/12/22 07:12:17;;;;;;;;;;;;;;;-5.79;100.00;102617.38;5003560;28;19925;-76
2021/12/22 07:14:42;;;;;;;;;;;;;;;-5.79;100.00;102614.88;4998228;28;19926;-76
2021/12/22 07:17:08;;;;;;;;;;;;;;;-5.81;100.00;102607.19;5003713;28;19983;-68
2021/12/22 07:19:33;;;;;;;;;;;;;;;-5.82;100.00;102607.91;4998930;28;19926;-68
2021/12/22 07:21:58;;;;;;;;;;;;;;;-5.82;100.00;102602.00;5001789;28;20372;-67
2021/12/22 07:24:24;;;;;;;;;;;;;;;-5.88;100.00;102599.66;5001738;28;20339;-74
2021/12/22 07:26:49;;;;;;;;;;;;;;;-5.88;100.00;102606.22;5002883;28;19953;-72
2021/12/22 07:29:15;;;;;;;;;;;;;;;-5.88;100.00;102598.72;5001484;28;20319;-76
2021/12/22 07:31:40;;;;;;;;;;;;;;;-5.88;100.00;102604.66;4998694;28;19975;-66
2021/12/22 07:34:19;;;;;;;;;;;;;;;-5.88;100.00;102602.16;5002177;28;19929;-69
2021/12/22 07:37:16;;;;;;;;;;;;;;;-5.82;100.00;102607.91;5001242;28;19921;-69
2021/12/22 07:39:42;;;;;;;;;;;;;;;-5.77;100.00;102599.31;4969703;28;20080;-76
2021/12/22 07:42:07;;;;;;;;;;;;;;;-5.72;100.00;102605.75;5006951;28;20578;-75
2021/12/22 07:44:32;;;;;;;;;;;;;;;-5.69;100.00;102603.66;5004319;28;19926;-77
2021/12/22 07:46:58;;;;;;;;;;;;;;;-5.72;100.00;102602.38;5003655;28;19925;-68
2021/12/22 07:49:23;;;;;;;;;;;;;;;-5.75;100.00;102602.91;4987882;28;20020;-70
2021/12/22 07:51:48;;;;;;;;;;;;;;;-5.75;100.00;102602.91;5004784;28;20020;-68
2021/12/22 07:54:14;;;;;;;;;;;;;;;-5.73;100.00;102605.59;5005955;28;19925;-69
2021/12/22 07:56:39;;;;;;;;;;;;;;;-5.71;100.00;102601.66;5001336;28;20439;-71
2021/12/22 07:59:05;;;;;;;;;;;;;;;-5.68;100.00;102599.53;5007263;28;19917;-67
2021/12/22 08:01:32;;;;;;;;;;;;;;;-5.62;100.00;102599.38;4989136;28;20376;-74
2021/12/22 08:03:58;;;;;;;;;;;;;;;-5.58;100.00;102594.91;5009631;28;20072;-75
2021/12/22 08:06:23;;;;;;;;;;;;;;;-5.57;100.00;102595.81;5009251;28;20378;-74
2021/12/22 08:08:49;;;;;;;;;;;;;;;-5.56;100.00;102595.97;5008209;28;19930;-74
2021/12/22 08:11:14;;;;;;;;;;;;;;;-5.50;100.00;102598.31;5006007;28;19932;-74
2021/12/22 08:13:39;;;;;;;;;;;;;;;-5.42;100.00;102585.09;5007344;28;19917;-74
2021/12/22 08:16:05;;;;;;;;;;;;;;;-5.32;100.00;102584.56;5006897;28;20002;-75
2021/12/22 08:18:30;;;;;;;;;;;;;;;-5.23;100.00;102583.13;4981705;28;19941;-71
2021/12/22 08:20:56;;;;;;;;;;;;;;;-5.14;100.00;102589.25;5008709;28;20003;-75
2021/12/22 08:23:21;;;;;;;;;;;;;;;-5.05;100.00;102592.81;5002141;28;20269;-73
2021/12/22 08:25:47;;;;;;;;;;;;;;;-4.96;100.00;102591.41;5005130;28;19987;-76
2021/12/22 08:28:12;;;;;;;;;;;;;;;-4.86;100.00;102589.25;5004879;28;21316;-75
2021/12/22 08:30:38;;;;;;;;;;;;;;;-4.78;100.00;102595.19;5003973;28;19929;-69
2021/12/22 08:33:09;;;;;;;;;;;;;;;-4.70;100.00;102596.06;5001594;28;19917;-73
2021/12/22 08:38:50;;;;;;;;;;;;;;;-4.60;100.00;102596.41;5006228;28;19925;-73
2021/12/22 08:41:04;;;;;;;;;;;;;;;-4.42;100.00;102596.03;5004352;28;20376;-68
2021/12/22 08:43:30;;;;;;;;;;;;;;;-4.33;100.00;102597.06;5005001;28;19968;-68
2021/12/22 08:45:55;;;;;;;;;;;;;;;-4.27;100.00;102583.44;5004478;28;19960;-68
2021/12/22 08:48:21;;;;;;;;;;;;;;;-4.18;100.00;102587.91;5005543;28;19922;-67
2021/12/22 08:50:46;;;;;;;;;;;;;;;-4.12;100.00;102587.69;5004316;28;19934;-68
2021/12/22 08:53:11;;;;;;;;;;;;;;;-4.05;100.00;102591.06;5008065;28;19929;-68
2021/12/22 08:55:36;;;;;;;;;;;;;;;-3.95;100.00;102582.94;5007439;28;19929;-68
2021/12/22 08:58:02;;;;;;;;;;;;;;;-3.87;100.00;102588.84;5008886;28;19918;-69
2021/12/22 09:00:27;;;;;;;;;;;;;;;-3.77;100.00;102595.06;4983762;28;20064;-68
2021/12/22 09:02:52;;;;;;;;;;;;;;;-3.62;100.00;102584.97;5006064;28;19929;-70
2021/12/22 09:05:18;;;;;;;;;;;;;;;-3.39;100.00;102592.56;4992131;28;19922;-68
2021/12/22 09:07:43;;;;;;;;;;;;;;;-3.19;100.00;102588.09;5007738;28;19928;-76
2021/12/22 09:10:09;;;;;;;;;;;;;;;-2.91;100.00;102581.97;5007456;28;19930;-74
2021/12/22 09:12:34;;;;;;;;;;;;;;;-2.47;100.00;102574.16;4986078;28;19933;-73
2021/12/22 09:14:59;;;;;;;;;;;;;;;-1.63;100.00;102572.97;5010582;28;19936;-74
2021/12/22 09:17:25;;;;;;;;;;;;;;;-0.65;100.00;102577.03;5009450;28;19933;-73
2021/12/22 09:19:53;;;;;;;;;;;;;;;-0.02;100.00;102579.06;4991674;28;19925;-73
2021/12/22 09:22:18;;;;;;;;;;;;;;;-0.03;100.00;102575.66;5006550;28;19917;-73
2021/12/22 09:24:43;;;;;;;;;;;;;;;0.18;100.00;102571.81;5006038;28;19929;-73
2021/12/22 09:27:09;;;;;;;;;;;;;;;0.52;100.00;102575.91;5009135;28;19935;-74
2021/12/22 09:29:36;;;;;;;;;;;;;;;1.28;100.00;102581.34;5007727;28;20793;-72
2021/12/22 09:32:01;;;;;;;;;;;;;;;1.71;98.17;102577.69;5007654;28;19961;-73
2021/12/22 09:34:27;;;;;;;;;;;;;;;1.79;91.65;102570.00;5003659;28;19967;-73
2021/12/22 09:36:52;;;;;;;;;;;;;;;2.06;91.07;102571.59;4990517;28;20284;-73
2021/12/22 09:39:17;;;;;;;;;;;;;;;2.49;90.36;102557.63;5005908;28;19948;-72
2021/12/22 09:41:44;;;;;;;;;;;;;;;2.65;78.12;102562.38;5007999;28;19988;-73
2021/12/22 09:44:09;;;;;;;;;;;;;;;3.17;77.45;102562.66;5006206;28;19926;-72
2021/12/22 09:46:38;;;;;;;;;;;;;;;3.38;79.54;102562.69;4988322;28;19921;-73
2021/12/22 09:52:19;;;;;;;;;;;;;;;4.36;74.29;102561.44;4993899;28;19935;-73
2021/12/22 09:54:48;;;;;;;;;;;;;;;4.12;78.30;102564.53;5006540;28;19921;-74
2021/12/22 09:57:15;;;;;;;;;;;;;;;3.69;82.59;102556.81;5007169;28;20012;-73
2021/12/22 09:59:40;;;;;;;;;;;;;;;3.62;71.44;102552.00;5007635;28;20011;-73
2021/12/22 10:02:06;;;;;;;;;;;;;;;3.22;70.07;102561.41;5008217;28;20440;-71
2021/12/22 10:04:31;;;;;;;;;;;;;;;2.90;76.13;102560.28;5006376;28;19922;-73
2021/12/22 10:06:57;;;;;;;;;;;;;;;2.95;81.46;102567.56;5006806;28;19972;-72
2021/12/22 10:09:23;;;;;;;;;;;;;;;3.22;75.81;102565.59;5002570;28;20012;-72
2021/12/22 10:11:48;;;;;;;;;;;;;;;3.26;79.69;102565.06;5006015;28;19917;-72
2021/12/22 10:14:24;;;;;;;;;;;;;;;3.32;79.39;102557.97;5008351;28;20284;-71
2021/12/22 10:16:52;;;;;;;;;;;;;;;3.59;80.84;102558.50;5009507;28;19924;-70
2021/12/22 10:19:17;;;;;;;;;;;;;;;3.93;77.80;102551.97;5006626;28;19996;-68
2021/12/22 10:21:50;;;;;;;;;;;;;;;4.07;73.90;102545.50;5005280;28;20012;-68
2021/12/22 10:24:16;;;;;;;;;;;;;;;3.87;68.48;102541.31;5007555;28;19975;-68
2021/12/22 10:26:41;;;;;;;;;;;;;;;3.47;67.88;102543.13;5005410;28;19922;-68
2021/12/22 10:29:07;;;;;;;;;;;;;;;3.20;71.31;102545.09;5007611;28;19933;-71
2021/12/22 10:31:35;;;;;;;;;;;;;;;3.11;71.54;102557.06;5006021;28;20007;-68
2021/12/22 10:34:05;;;;;;;;;;;;;;;3.06;72.67;102555.78;5007967;28;20415;-68
2021/12/22 10:36:41;;;;;;;;;;;;;;;3.56;74.50;102540.44;5006346;28;19944;-68
2021/12/22 10:39:15;;;;;;;;;;;;;;;4.77;71.22;102536.69;5004792;28;19913;-70
2021/12/22 10:41:40;;;;;;;;;;;;;;;6.31;63.64;102524.47;5004248;28;19926;-70
2021/12/22 10:44:07;;;;;;;;;;;;;;;7.11;60.20;102519.81;5008440;28;19939;-70
2021/12/22 10:46:35;;;;;;;;;;;;;;;7.59;69.06;102513.66;5000904;28;19990;-73
2021/12/22 10:49:20;;;;;;;;;;;;;;;8.42;59.63;102514.78;5007772;28;19936;-74
2021/12/22 10:51:57;;;;;;;;;;;;;;;7.77;52.46;102504.63;4997195;28;19925;-73
2021/12/22 10:54:29;;;;;;;;;;;;;;;6.61;58.42;102510.41;5005122;28;19918;-74
2021/12/22 10:56:57;;;;;;;;;;;;;;;5.64;58.85;102509.25;5004660;28;19945;-73
2021/12/22 10:59:22;;;;;;;;;;;;;;;5.03;61.14;102500.44;5004358;28;19926;-69
2021/12/22 11:01:56;;;;;;;;;;;;;;;5.23;61.52;102499.44;5003766;28;19925;-69
2021/12/22 11:04:26;;;;;;;;;;;;;;;5.65;59.56;102504.28;5004239;28;19929;-69
2021/12/22 11:06:54;;;;;;;;;;;;;;;5.73;60.13;102489.53;5006277;28;20356;-68
2021/12/22 11:09:21;;;;;;;;;;;;;;;6.03;64.42;102493.47;4996877;28;19921;-69
2021/12/22 11:11:48;;;;;;;;;;;;;;;7.41;61.28;102487.72;5005099;28;20300;-72
2021/12/22 11:14:19;;;;;;;;;;;;;;;8.86;53.20;102476.53;5004183;28;19925;-71
2021/12/22 11:16:50;;;;;;;;;;;;;;;9.80;54.46;102475.19;5010668;28;20058;-68
2021/12/22 11:19:16;;;;;;;;;;;;;;;10.24;47.54;102482.84;5011240;28;19975;-69
2021/12/22 11:24:43;;;;;;;;;;;;;;;9.64;52.21;102482.00;5010389;28;19972;-68
2021/12/22 11:27:09;;;;;;;;;;;;;;;9.87;58.12;102473.03;5012286;28;19953;-68
2021/12/22 11:29:36;;;;;;;;;;;;;;;10.25;50.22;102471.75;5011536;28;19926;-70
2021/12/22 11:32:03;;;;;;;;;;;;;;;10.02;51.94;102472.16;5011161;28;20448;-68
2021/12/22 11:34:29;;;;;;;;;;;;;;;8.89;58.36;102463.88;5009197;28;20004;-69
2021/12/22 11:36:56;;;;;;;;;;;;;;;7.55;58.23;102468.16;5009578;28;20017;-69
2021/12/22 11:39:22;;;;;;;;;;;;;;;6.13;55.77;102466.94;5002127;28;19964;-68
2021/12/22 11:41:56;;;;;;;;;;;;;;;5.21;62.67;102467.78;5010138;28;19929;-71
2021/12/22 11:44:23;;;;;;;;;;;;;;;4.50;65.12;102474.28;5008602;28;19928;-68
2021/12/22 11:46:48;;;;;;;;;;;;;;;3.96;65.51;102468.25;5008782;28;19921;-69
2021/12/22 11:49:17;;;;;;;;;;;;;;;3.54;66.07;102460.59;5009607;28;19924;-74
2021/12/22 11:51:42;;;;;;;;;;;;;;;3.20;67.49;102456.13;5004604;28;19926;-69
2021/12/22 11:54:09;;;;;;;;;;;;;;;2.85;68.17;102459.91;4995262;28;19929;-69
2021/12/22 11:56:34;;;;;;;;;;;;;;;2.35;69.75;102454.84;5010231;28;19925;-69
2021/12/22 11:59:00;;;;;;;;;;;;;;;1.89;71.09;102452.50;5010760;28;19995;-73
2021/12/22 12:01:25;;;;;;;;;;;;;;;1.67;72.52;102457.31;5010083;28;19957;-70
2021/12/22 12:04:09;;;;;;;;;;;;;;;1.74;74.43;102451.13;5010513;28;19928;-71
2021/12/22 12:06:45;;;;;;;;;;;;;;;1.67;74.87;102446.28;5007027;28;19917;-72
2021/12/22 12:09:11;;;;;;;;;;;;;;;1.58;75.92;102437.13;5005471;28;19948;-68
2021/12/22 12:11:41;;;;;;;;;;;;;;;1.54;76.23;102427.44;5009946;28;20312;-69
2021/12/22 12:14:25;;;;;;;;;;;;;;;1.46;76.04;102428.41;5010461;28;19913;-71
2021/12/22 12:22:19;;;;;;;;;;;;;;;1.20;77.64;102410.84;5010155;28;19944;-69
2021/12/22 12:24:47;;;;;;;;;;;;;;;1.12;79.19;102416.88;5008971;28;20376;-69
2021/12/22 12:27:28;;;;;;;;;;;;;;;1.14;78.80;102409.41;5009528;28;20537;-69
2021/12/22 12:29:58;;;;;;;;;;;;;;;1.15;79.26;102411.19;5006202;28;19928;-68
2021/12/22 12:32:53;;;;;;;;;;;;;;;1.14;79.65;102417.00;5010396;28;19944;-69
2021/12/22 12:35:18;;;;;;;;;;;;;;;1.10;79.18;102402.31;4993843;28;20118;-74
2021/12/22 12:38:04;;;;;;;;;;;;;;;1.14;79.24;102397.63;5007822;28;20599;-74
2021/12/22 12:40:48;;;;;;;;;;;;;;;1.18;78.83;102396.28;4995286;28;19926;-73
2021/12/22 12:43:13;;;;;;;;;;;;;;;1.19;79.37;102398.06;5005027;28;19925;-73
2021/12/22 12:45:46;;;;;;;;;;;;;;;1.16;78.94;102401.22;5009304;28;19936;-73
2021/12/22 12:48:30;;;;;;;;;;;;;;;1.12;79.43;102395.72;5008955;28;20265;-74
2021/12/22 12:51:14;;;;;;;;;;;;;;;1.17;80.27;102389.44;5008722;28;19929;-74
2021/12/22 12:54:06;;;;;;;;;;;;;;;;;;;;;
2021/12/22 12:56:32;;;;;;;;;;;;;;;1.19;79.39;102381.19;5009145;28;20422;-70